Hundvaag 1 weather for Dec 2000
Month no. 162
Obs.
Da.
Temp. Dew Point Precip. Wind
Speed
Wind gusts Cloud cover Press. Humidity Wind dir. Sunny OPT
01.12.2000 8,8   0,1     1 1010,4        
02.12.2000 4,9   1,9     0 1007,5     1  
03.12.2000 8,5   0,0     2 1010,4        
04.12.2000 7,0   1,2     0 1010,4        
05.12.2000 9,9   7,1     0 1008,0        
06.12.2000 9,8   16,2     0 1007,7        
07.12.2000 9,0   0,0     0 1008,1     1  
08.12.2000 5,9   2,6     10 1006,8     1  
09.12.2000 8,9   1,4     0 1005,2        
10.12.2000 7,9   15,2     3 1004,5        
11.12.2000 7,7   5,4     2 1006,4        
12.12.2000 4,6   3,6     10 1009,2        
13.12.2000 8,9   14,8     0 993,5        
14.12.2000 6,8   16,3     2 988,3        
15.12.2000 6,5   10,7     0 996,4        
16.12.2000 3,8   0,0     4 1005,3     1  
17.12.2000 -1,2   0,0     10 1011,5     1  
18.12.2000 2,7   0,0     4 1014,4     1  
19.12.2000 0,3   0,0     9 1020,8     1  
20.12.2000 2,7   0,0     2 1022,7        
21.12.2000 4,4   0,0     1 1022,4     1  
22.12.2000 2,1   0,0     0 1020,4        
23.12.2000 2,1   0,0     7 1014,0     1  
24.12.2000 -1,9   0,0     10 1013,7     1  
25.12.2000 -3,7   0,0     10 1013,1     1  
26.12.2000 -0,2   4,3     2 1005,7        
27.12.2000 0,7   15,2     3 1004,7     1  
28.12.2000 -1,2   4,8     10 1005,3     1  
29.12.2000 0,2   2,1     0 999,6        
30.12.2000 -4,7   0,1     10 1003,3     1  
31.12.2000 0,5   0,0     0 1010,5     1  
Avrg/Sum 3,9   123,0     3,6 1008,4     15